Time;durP1;ratioP1;P1;durP2;ratioP2;P2;SDS_P1;SDS_P2;PMS_P1;PMS_P2;Temp;Humidity;BMP_temperature;BMP_pressure;BME280_temperature;BME280_humidity;BME280_pressure;Samples;Min_cycle;Max_cycle;Signal;HPM_P1;HPM_P2
2022/05/03 00:01:41;;;;;;;22.70;21.40;;;;;;;;;;5073892;28;20467;-90
2022/05/03 00:04:11;;;;;;;22.67;20.93;;;;;;;;;;5073841;28;20457;-90
2022/05/03 00:06:43;;;;;;;22.73;21.43;;;;;;;;;;5089926;28;20512;-90
2022/05/03 00:09:13;;;;;;;22.30;21.00;;;;;;;;;;5073619;28;20420;-90
2022/05/03 00:11:42;;;;;;;22.90;21.50;;;;;;;;;;5074179;28;20453;-90
2022/05/03 00:14:17;;;;;;;22.17;20.87;;;;;;;;;;5072729;28;20446;-90
2022/05/03 00:16:46;;;;;;;22.83;21.50;;;;;;;;;;5073554;28;20964;-89
2022/05/03 00:19:13;;;;;;;22.80;21.37;;;;;;;;;;5073203;28;20420;-90
2022/05/03 00:21:43;;;;;;;23.93;22.43;;;;;;;;;;5074078;28;20851;-90
2022/05/03 00:24:10;;;;;;;23.00;21.67;;;;;;;;;;5074732;28;20445;-90
2022/05/03 00:26:37;;;;;;;22.03;20.83;;;;;;;;;;5074057;28;20910;-91
2022/05/03 00:29:05;;;;;;;23.80;22.40;;;;;;;;;;5073750;28;20438;-90
2022/05/03 00:31:32;;;;;;;23.30;21.70;;;;;;;;;;5073865;28;20808;-90
2022/05/03 00:34:00;;;;;;;22.20;20.90;;;;;;;;;;5077777;28;20827;-90
2022/05/03 00:36:28;;;;;;;22.73;21.43;;;;;;;;;;5077274;28;20555;-90
2022/05/03 00:38:57;;;;;;;22.30;21.00;;;;;;;;;;5077569;28;20446;-90
2022/05/03 00:41:29;;;;;;;22.70;21.37;;;;;;;;;;5077388;28;20546;-90
2022/05/03 00:44:02;;;;;;;22.20;21.00;;;;;;;;;;5077219;28;20412;-91
2022/05/03 00:46:30;;;;;;;21.80;20.60;;;;;;;;;;5077582;28;20434;-90
2022/05/03 00:49:06;;;;;;;22.90;21.40;;;;;;;;;;5077160;28;20763;-90
2022/05/03 00:51:40;;;;;;;23.10;21.70;;;;;;;;;;5077379;28;20434;-90
2022/05/03 00:54:19;;;;;;;22.70;21.50;;;;;;;;;;5077386;28;20409;-90
2022/05/03 00:56:57;;;;;;;22.40;21.10;;;;;;;;;;5077203;28;20931;-90
2022/05/03 00:59:32;;;;;;;21.63;20.43;;;;;;;;;;5077211;28;20455;-90
2022/05/03 01:02:04;;;;;;;22.50;21.30;;;;;;;;;;5077005;28;20408;-90
2022/05/03 01:04:37;;;;;;;21.93;20.70;;;;;;;;;;5076769;28;20950;-89
2022/05/03 01:07:12;;;;;;;21.47;20.27;;;;;;;;;;5077026;28;20420;-90
2022/05/03 01:09:41;;;;;;;22.17;20.97;;;;;;;;;;5076736;28;20735;-90
2022/05/03 01:12:17;;;;;;;21.70;20.50;;;;;;;;;;5076943;28;20508;-90
2022/05/03 01:14:51;;;;;;;23.20;21.90;;;;;;;;;;5076813;28;20887;-90
2022/05/03 01:17:22;;;;;;;22.40;21.00;;;;;;;;;;5076771;28;20412;-90
2022/05/03 01:19:57;;;;;;;22.23;20.93;;;;;;;;;;5076697;28;20887;-89
2022/05/03 01:22:48;;;;;;;22.63;21.33;;;;;;;;;;5076850;28;20446;-89
2022/05/03 01:25:29;;;;;;;22.90;21.50;;;;;;;;;;5066255;28;20836;-90
2022/05/03 01:28:06;;;;;;;22.73;21.10;;;;;;;;;;5076900;28;20537;-90
2022/05/03 01:30:35;;;;;;;21.73;20.53;;;;;;;;;;5076472;28;20415;-90
2022/05/03 01:33:07;;;;;;;21.53;20.33;;;;;;;;;;5076644;28;20425;-90
2022/05/03 01:35:38;;;;;;;21.80;20.50;;;;;;;;;;5075135;28;20449;-90
2022/05/03 01:38:07;;;;;;;22.90;21.30;;;;;;;;;;5076518;28;20817;-90
2022/05/03 01:40:48;;;;;;;21.93;20.73;;;;;;;;;;5076235;28;20538;-89
2022/05/03 01:43:21;;;;;;;22.77;21.07;;;;;;;;;;5076251;28;20579;-90
2022/05/03 01:45:58;;;;;;;20.93;19.73;;;;;;;;;;5075963;28;20911;-90
2022/05/03 01:50:18;;;;;;;21.23;20.07;;;;;;;;;;5076316;28;20533;-90
2022/05/03 01:51:24;;;;;;;21.87;20.57;;;;;;;;;;5076501;28;20408;-90
2022/05/03 01:53:54;;;;;;;21.93;20.73;;;;;;;;;;5076782;28;20409;-90
2022/05/03 01:56:27;;;;;;;22.20;20.90;;;;;;;;;;5076200;28;20505;-90
2022/05/03 01:59:11;;;;;;;22.07;20.77;;;;;;;;;;5076841;28;20485;-90
2022/05/03 02:01:59;;;;;;;22.07;20.87;;;;;;;;;;5076606;28;20417;-89
2022/05/03 02:04:42;;;;;;;21.63;20.43;;;;;;;;;;5073013;28;20894;-91
2022/05/03 02:07:13;;;;;;;21.80;20.40;;;;;;;;;;5075815;28;20454;-90
2022/05/03 02:10:02;;;;;;;21.90;20.60;;;;;;;;;;5075477;28;20439;-90
2022/05/03 02:12:29;;;;;;;21.97;20.57;;;;;;;;;;5075644;28;20413;-90
2022/05/03 02:14:56;;;;;;;21.40;20.30;;;;;;;;;;5091564;28;20496;-90
2022/05/03 02:17:44;;;;;;;22.63;21.03;;;;;;;;;;5075764;28;20484;-90
2022/05/03 02:20:29;;;;;;;20.87;19.67;;;;;;;;;;5072510;28;20485;-90
2022/05/03 02:23:01;;;;;;;21.67;20.30;;;;;;;;;;5091222;28;20450;-90
2022/05/03 02:25:36;;;;;;;21.03;19.83;;;;;;;;;;5074367;28;20446;-90
2022/05/03 02:28:04;;;;;;;22.20;21.00;;;;;;;;;;5075342;28;20409;-90
2022/05/03 02:30:33;;;;;;;21.37;20.17;;;;;;;;;;5075445;28;20429;-90
2022/05/03 02:33:03;;;;;;;21.90;20.70;;;;;;;;;;5075284;28;20398;-89
2022/05/03 02:35:34;;;;;;;21.00;19.90;;;;;;;;;;5075452;28;20524;-90
2022/05/03 02:38:04;;;;;;;21.40;19.97;;;;;;;;;;5075384;28;20466;-90
2022/05/03 02:40:32;;;;;;;21.13;20.00;;;;;;;;;;5075239;28;20438;-90
2022/05/03 02:43:00;;;;;;;21.30;20.10;;;;;;;;;;5075459;28;20834;-90
2022/05/03 02:45:27;;;;;;;21.47;20.10;;;;;;;;;;5074970;28;20932;-89
2022/05/03 02:47:59;;;;;;;22.03;20.70;;;;;;;;;;5074903;28;20450;-91
2022/05/03 02:50:30;;;;;;;22.10;20.80;;;;;;;;;;5075034;28;20475;-89
2022/05/03 02:53:03;;;;;;;22.53;21.13;;;;;;;;;;5075173;28;20443;-90
2022/05/03 02:55:33;;;;;;;21.90;20.80;;;;;;;;;;5074245;28;20451;-90
2022/05/03 02:58:06;;;;;;;21.40;20.00;;;;;;;;;;5074996;28;20450;-90
2022/05/03 03:03:46;;;;;;;21.37;20.17;;;;;;;;;;5074854;28;20889;-90
2022/05/03 03:06:18;;;;;;;21.27;20.07;;;;;;;;;;5074641;28;20822;-91
2022/05/03 03:08:48;;;;;;;22.00;20.60;;;;;;;;;;5090265;28;20517;-91
2022/05/03 03:11:22;;;;;;;21.30;20.20;;;;;;;;;;5074598;28;20966;-90
2022/05/03 03:13:56;;;;;;;20.80;19.70;;;;;;;;;;5074628;28;20450;-90
2022/05/03 03:16:29;;;;;;;21.50;20.30;;;;;;;;;;5074347;28;20477;-90
2022/05/03 03:18:58;;;;;;;20.87;19.77;;;;;;;;;;5074586;28;20409;-89
2022/05/03 03:21:26;;;;;;;20.87;19.70;;;;;;;;;;5074494;28;20998;-89
2022/05/03 03:23:55;;;;;;;20.67;19.57;;;;;;;;;;5074404;28;20410;-90
2022/05/03 03:26:26;;;;;;;20.40;19.30;;;;;;;;;;5074124;28;20450;-90
2022/05/03 03:28:54;;;;;;;20.57;19.20;;;;;;;;;;5074157;28;20439;-90
2022/05/03 03:31:23;;;;;;;21.13;19.83;;;;;;;;;;5090577;28;20487;-90
2022/05/03 03:33:51;;;;;;;21.07;19.87;;;;;;;;;;5073022;28;20402;-90
2022/05/03 03:36:19;;;;;;;21.70;20.40;;;;;;;;;;5073895;28;20477;-90
2022/05/03 03:38:48;;;;;;;20.97;19.63;;;;;;;;;;5089762;28;20454;-89
2022/05/03 03:41:17;;;;;;;20.50;19.40;;;;;;;;;;5074229;28;20454;-90
2022/05/03 03:43:44;;;;;;;20.63;19.53;;;;;;;;;;5074330;28;20484;-90
2022/05/03 03:46:11;;;;;;;21.00;19.50;;;;;;;;;;5074217;28;20435;-90
2022/05/03 03:48:39;;;;;;;20.10;19.10;;;;;;;;;;5073999;28;20426;-90
2022/05/03 03:51:07;;;;;;;19.93;18.83;;;;;;;;;;5073942;28;20459;-89
2022/05/03 03:53:34;;;;;;;21.40;20.00;;;;;;;;;;5074115;28;20458;-90
2022/05/03 03:56:03;;;;;;;20.90;19.90;;;;;;;;;;5073879;28;20501;-88
2022/05/03 03:58:32;;;;;;;19.70;18.70;;;;;;;;;;5073946;28;20899;-87
2022/05/03 04:01:00;;;;;;;20.60;19.50;;;;;;;;;;5073715;28;20496;-87
2022/05/03 04:03:27;;;;;;;20.97;19.87;;;;;;;;;;5073902;28;20439;-87
2022/05/03 04:05:55;;;;;;;20.03;19.03;;;;;;;;;;5072850;28;20459;-87
2022/05/03 04:08:24;;;;;;;20.00;19.00;;;;;;;;;;5076974;28;20446;-87
2022/05/03 04:10:51;;;;;;;20.30;19.20;;;;;;;;;;5077893;28;20443;-87
2022/05/03 04:13:18;;;;;;;20.03;18.93;;;;;;;;;;5077516;28;20434;-87
2022/05/03 04:15:48;;;;;;;20.40;19.30;;;;;;;;;;5077922;28;20434;-87
2022/05/03 04:18:15;;;;;;;20.60;19.23;;;;;;;;;;5093598;28;20447;-87
2022/05/03 04:20:43;;;;;;;21.30;19.90;;;;;;;;;;5059945;28;20878;-87
2022/05/03 04:23:10;;;;;;;20.20;19.10;;;;;;;;;;5060157;28;20438;-86
2022/05/03 04:25:38;;;;;;;19.97;18.87;;;;;;;;;;5077441;28;20470;-87
2022/05/03 04:28:05;;;;;;;20.77;19.67;;;;;;;;;;5077540;28;20438;-87
2022/05/03 04:30:33;;;;;;;20.27;19.17;;;;;;;;;;5077565;28;20445;-87
2022/05/03 04:33:02;;;;;;;20.53;19.37;;;;;;;;;;5077389;28;20808;-87
2022/05/03 04:35:29;;;;;;;20.57;19.47;;;;;;;;;;5076884;28;20931;-87
2022/05/03 04:37:56;;;;;;;21.87;20.60;;;;;;;;;;5077227;28;20456;-86
2022/05/03 04:40:24;;;;;;;20.60;19.50;;;;;;;;;;5077190;28;20428;-87
2022/05/03 04:42:51;;;;;;;21.40;19.87;;;;;;;;;;5092701;28;20421;-87
2022/05/03 04:45:19;;;;;;;20.57;19.40;;;;;;;;;;5076897;28;20872;-87
2022/05/03 04:47:46;;;;;;;21.63;20.33;;;;;;;;;;5076985;28;20449;-86
2022/05/03 04:50:15;;;;;;;21.10;19.80;;;;;;;;;;5077197;28;20813;-87
2022/05/03 04:52:43;;;;;;;22.80;21.40;;;;;;;;;;5077072;28;20441;-88
2022/05/03 04:55:11;;;;;;;23.10;21.80;;;;;;;;;;5077203;28;20435;-87
2022/05/03 04:57:38;;;;;;;22.77;21.57;;;;;;;;;;5076397;28;20504;-87
2022/05/03 05:00:06;;;;;;;22.50;21.30;;;;;;;;;;5077192;28;20436;-87
2022/05/03 05:02:33;;;;;;;22.50;21.30;;;;;;;;;;5076556;28;20445;-87
2022/05/03 05:05:00;;;;;;;21.00;19.90;;;;;;;;;;5076866;28;20472;-86
2022/05/03 05:07:30;;;;;;;20.00;19.00;;;;;;;;;;5076558;28;20437;-86
2022/05/03 05:12:42;;;;;;;19.90;18.67;;;;;;;;;;5076652;28;20412;-87
2022/05/03 05:15:10;;;;;;;19.83;18.83;;;;;;;;;;5075552;28;20875;-87
2022/05/03 05:17:37;;;;;;;20.90;19.80;;;;;;;;;;5075770;28;20484;-86
2022/05/03 05:20:05;;;;;;;22.00;20.40;;;;;;;;;;5076526;28;20449;-86
2022/05/03 05:22:34;;;;;;;21.43;20.33;;;;;;;;;;5076355;28;20988;-86
2022/05/03 05:25:02;;;;;;;21.10;20.00;;;;;;;;;;5076887;28;20412;-87
2022/05/03 05:27:30;;;;;;;21.37;20.17;;;;;;;;;;5076869;28;20413;-86
2022/05/03 05:29:57;;;;;;;22.47;21.27;;;;;;;;;;5076327;28;20487;-87
2022/05/03 05:32:25;;;;;;;21.73;20.60;;;;;;;;;;5076384;28;20438;-86
2022/05/03 05:34:52;;;;;;;21.80;20.40;;;;;;;;;;5076450;28;20423;-87
2022/05/03 05:37:20;;;;;;;21.80;20.60;;;;;;;;;;5075533;28;20490;-87
2022/05/03 05:39:48;;;;;;;22.17;20.87;;;;;;;;;;5075912;28;20446;-86
2022/05/03 05:42:16;;;;;;;22.27;21.10;;;;;;;;;;5076058;28;20409;-87
2022/05/03 05:44:43;;;;;;;21.50;20.40;;;;;;;;;;5076179;28;20417;-87
2022/05/03 05:47:11;;;;;;;22.03;20.83;;;;;;;;;;5076284;28;20504;-87
2022/05/03 05:49:38;;;;;;;22.77;21.57;;;;;;;;;;5076139;27;20448;-87
2022/05/03 05:54:52;;;;;;;21.40;20.30;;;;;;;;;;5075934;28;20422;-87
2022/05/03 05:57:20;;;;;;;21.50;20.40;;;;;;;;;;5075719;28;20476;-87
2022/05/03 05:59:47;;;;;;;21.93;20.83;;;;;;;;;;5075861;28;20436;-86
2022/05/03 06:02:15;;;;;;;22.20;20.93;;;;;;;;;;5075327;28;20406;-87
2022/05/03 06:04:42;;;;;;;21.83;20.73;;;;;;;;;;5075534;28;20471;-87
2022/05/03 06:07:10;;;;;;;27.03;25.73;;;;;;;;;;5075485;28;20447;-87
2022/05/03 06:09:37;;;;;;;22.50;21.30;;;;;;;;;;5075701;28;20424;-87
2022/05/03 06:12:06;;;;;;;21.20;20.00;;;;;;;;;;5091123;28;20500;-87
2022/05/03 06:14:34;;;;;;;21.03;19.93;;;;;;;;;;5075458;28;20778;-87
2022/05/03 06:17:01;;;;;;;21.73;20.53;;;;;;;;;;5075957;28;20881;-88
2022/05/03 06:19:29;;;;;;;21.50;20.30;;;;;;;;;;5075516;28;20772;-88
2022/05/03 06:21:56;;;;;;;21.57;20.47;;;;;;;;;;5075506;28;20417;-88
2022/05/03 06:24:23;;;;;;;21.43;20.33;;;;;;;;;;5075456;27;20462;-87
2022/05/03 06:26:51;;;;;;;21.67;20.57;;;;;;;;;;5091090;28;21013;-88
2022/05/03 06:29:19;;;;;;;21.50;20.40;;;;;;;;;;5074552;28;20907;-88
2022/05/03 06:31:47;;;;;;;21.77;20.67;;;;;;;;;;5074977;28;20408;-87
2022/05/03 06:34:14;;;;;;;22.00;20.90;;;;;;;;;;5075164;28;20405;-87
2022/05/03 06:36:41;;;;;;;21.20;20.10;;;;;;;;;;5074730;28;20455;-87
2022/05/03 06:39:09;;;;;;;21.63;20.53;;;;;;;;;;5075166;28;20434;-87
2022/05/03 06:41:36;;;;;;;21.60;20.50;;;;;;;;;;5074903;28;20449;-86
2022/05/03 06:44:04;;;;;;;21.97;20.77;;;;;;;;;;5074993;28;20420;-87
2022/05/03 06:46:32;;;;;;;21.80;20.50;;;;;;;;;;5074895;28;20863;-87
2022/05/03 06:49:00;;;;;;;22.10;20.90;;;;;;;;;;5074789;28;20937;-87
2022/05/03 06:51:27;;;;;;;20.87;19.67;;;;;;;;;;5074842;28;20409;-87
2022/05/03 06:53:56;;;;;;;21.03;19.90;;;;;;;;;;5074449;28;20492;-88
2022/05/03 06:56:23;;;;;;;21.83;20.30;;;;;;;;;;5074962;28;20817;-87
2022/05/03 06:58:50;;;;;;;21.77;20.50;;;;;;;;;;5075346;28;20493;-87
2022/05/03 07:01:18;;;;;;;21.50;20.20;;;;;;;;;;5074503;28;20900;-87
2022/05/03 07:03:47;;;;;;;23.67;22.37;;;;;;;;;;5074354;28;20454;-88
2022/05/03 07:06:18;;;;;;;23.00;21.83;;;;;;;;;;5074738;28;20459;-85
2022/05/03 07:08:46;;;;;;;23.13;21.93;;;;;;;;;;5074828;28;20409;-91
2022/05/03 07:11:14;;;;;;;22.70;21.50;;;;;;;;;;5074630;28;20420;-89
2022/05/03 07:13:42;;;;;;;21.87;20.60;;;;;;;;;;5074668;28;20413;-90
2022/05/03 07:16:09;;;;;;;21.53;20.43;;;;;;;;;;5074602;28;20434;-90
2022/05/03 07:24:08;;;;;;;22.23;20.93;;;;;;;;;;5074422;28;20908;-89
2022/05/03 07:26:37;;;;;;;22.03;20.80;;;;;;;;;;5074151;28;20462;-88
2022/05/03 07:29:05;;;;;;;22.03;20.73;;;;;;;;;;5074111;28;20446;-89
2022/05/03 07:31:32;;;;;;;22.40;21.00;;;;;;;;;;5074647;28;20442;-87
2022/05/03 07:33:59;;;;;;;21.70;20.47;;;;;;;;;;5074322;28;20434;-89
2022/05/03 07:36:30;;;;;;;21.30;20.10;;;;;;;;;;5074154;28;20971;-88
2022/05/03 07:38:58;;;;;;;21.60;20.40;;;;;;;;;;5074658;28;20493;-89
2022/05/03 07:41:25;;;;;;;23.00;21.40;;;;;;;;;;5089523;28;20943;-90
2022/05/03 07:43:55;;;;;;;21.70;20.37;;;;;;;;;;5074102;28;20474;-88
2022/05/03 07:46:22;;;;;;;22.23;20.93;;;;;;;;;;5074257;28;20812;-88
2022/05/03 07:48:50;;;;;;;22.47;20.97;;;;;;;;;;5073714;28;20430;-87
2022/05/03 07:51:19;;;;;;;22.20;20.90;;;;;;;;;;5073909;28;20978;-86
2022/05/03 07:53:48;;;;;;;22.87;21.57;;;;;;;;;;5073718;28;20789;-86
2022/05/03 07:56:15;;;;;;;23.37;21.97;;;;;;;;;;5073458;28;20477;-87
2022/05/03 07:58:43;;;;;;;22.83;21.53;;;;;;;;;;5073328;28;20461;-87
2022/05/03 08:01:10;;;;;;;22.33;21.13;;;;;;;;;;5074139;28;20446;-87
2022/05/03 08:03:38;;;;;;;22.37;21.13;;;;;;;;;;5073934;28;20463;-87
2022/05/03 08:06:05;;;;;;;22.67;21.47;;;;;;;;;;5089681;28;20451;-88
2022/05/03 08:08:32;;;;;;;22.93;21.37;;;;;;;;;;5073121;28;20443;-85
2022/05/03 08:11:01;;;;;;;23.00;21.80;;;;;;;;;;5074067;28;20491;-92
2022/05/03 08:13:29;;;;;;;22.67;21.37;;;;;;;;;;5073880;28;20430;-90
2022/05/03 08:15:56;;;;;;;23.70;22.40;;;;;;;;;;5073319;28;20990;-83
2022/05/03 08:18:23;;;;;;;21.87;20.73;;;;;;;;;;5073303;28;20874;-95
2022/05/03 08:20:51;;;;;;;21.60;20.40;;;;;;;;;;5074422;28;20448;-89
2022/05/03 08:23:19;;;;;;;22.60;21.30;;;;;;;;;;5073163;28;20470;-85
2022/05/03 08:25:47;;;;;;;22.73;21.40;;;;;;;;;;5073118;28;20427;-85
2022/05/03 08:28:16;;;;;;;21.77;20.57;;;;;;;;;;5072773;28;20421;-86
2022/05/03 08:30:43;;;;;;;22.10;20.80;;;;;;;;;;5072646;28;20478;-83
2022/05/03 08:33:11;;;;;;;21.50;20.30;;;;;;;;;;5072576;28;20416;-83
2022/05/03 08:35:39;;;;;;;21.50;20.30;;;;;;;;;;5072245;28;20774;-83
2022/05/03 08:43:38;;;;;;;21.73;20.53;;;;;;;;;;5072445;28;20449;-83
2022/05/03 08:46:07;;;;;;;21.60;20.40;;;;;;;;;;5087941;28;20830;-83
2022/05/03 08:48:37;;;;;;;21.50;20.30;;;;;;;;;;5072493;28;20477;-82
2022/05/03 08:51:04;;;;;;;22.17;20.77;;;;;;;;;;5072684;28;20446;-83
2022/05/03 08:53:32;;;;;;;22.50;21.20;;;;;;;;;;5073673;28;20451;-82
2022/05/03 08:56:00;;;;;;;22.07;20.87;;;;;;;;;;5076011;28;20460;-82
2022/05/03 08:58:27;;;;;;;22.20;20.90;;;;;;;;;;5091497;28;21020;-83
2022/05/03 09:00:56;;;;;;;21.90;20.70;;;;;;;;;;5076009;28;20445;-82
2022/05/03 09:03:24;;;;;;;21.97;20.77;;;;;;;;;;5091314;28;20826;-83
2022/05/03 09:05:52;;;;;;;21.40;20.27;;;;;;;;;;5091146;28;20489;-82
2022/05/03 09:08:23;;;;;;;22.63;21.33;;;;;;;;;;5075567;28;20464;-83
2022/05/03 09:10:51;;;;;;;22.70;21.13;;;;;;;;;;5075764;28;20511;-83
2022/05/03 09:13:20;;;;;;;22.40;21.10;;;;;;;;;;5075762;28;20434;-82
2022/05/03 09:15:50;;;;;;;22.97;21.67;;;;;;;;;;5075252;28;20943;-82
2022/05/03 09:18:23;;;;;;;21.90;20.70;;;;;;;;;;5075627;28;20482;-82
2022/05/03 09:23:48;;;;;;;23.30;21.90;;;;;;;;;;5075433;28;20421;-83
2022/05/03 09:26:17;;;;;;;21.90;20.70;;;;;;;;;;5075315;28;20962;-82
2022/05/03 09:28:45;;;;;;;22.30;20.80;;;;;;;;;;5075695;28;20417;-84
2022/05/03 09:31:13;;;;;;;22.33;20.93;;;;;;;;;;5075509;28;20525;-84
2022/05/03 09:33:42;;;;;;;22.70;21.40;;;;;;;;;;5073672;28;20438;-83
2022/05/03 09:36:10;;;;;;;22.80;21.50;;;;;;;;;;5075105;28;20447;-83
2022/05/03 09:38:46;;;;;;;23.60;22.20;;;;;;;;;;5075109;28;20526;-82
2022/05/03 09:41:15;;;;;;;22.23;20.83;;;;;;;;;;5075028;28;20512;-83
2022/05/03 09:43:57;;;;;;;23.80;21.87;;;;;;;;;;5074920;28;20448;-83
2022/05/03 09:46:24;;;;;;;22.77;21.47;;;;;;;;;;5074951;28;20425;-82
2022/05/03 09:48:54;;;;;;;23.30;21.93;;;;;;;;;;5090646;28;20922;-82
2022/05/03 09:51:22;;;;;;;23.70;22.40;;;;;;;;;;5066474;28;20433;-81
2022/05/03 09:53:56;;;;;;;23.67;22.00;;;;;;;;;;5074839;28;20409;-81
2022/05/03 09:56:25;;;;;;;24.27;22.87;;;;;;;;;;5073229;28;20891;-81
2022/05/03 09:58:56;;;;;;;23.43;22.03;;;;;;;;;;5074828;28;20892;-82
2022/05/03 10:01:25;;;;;;;22.83;21.53;;;;;;;;;;5074546;28;20901;-82
2022/05/03 10:03:53;;;;;;;23.40;22.00;;;;;;;;;;5074487;28;20444;-83
2022/05/03 10:06:22;;;;;;;23.20;21.80;;;;;;;;;;5074826;28;20455;-83
2022/05/03 10:08:51;;;;;;;24.33;22.77;;;;;;;;;;5074699;28;20408;-82
2022/05/03 10:11:21;;;;;;;23.93;22.53;;;;;;;;;;5074633;28;20516;-82
2022/05/03 10:13:48;;;;;;;23.87;22.43;;;;;;;;;;5074498;28;20493;-82
2022/05/03 10:21:50;;;;;;;24.30;22.80;;;;;;;;;;5055181;28;20401;-86
2022/05/03 10:24:18;;;;;;;25.40;23.57;;;;;;;;;;5055068;28;20532;-89
2022/05/03 10:26:56;;;;;;;25.03;23.43;;;;;;;;;;5055425;28;21023;-89
2022/05/03 10:29:25;;;;;;;24.37;22.87;;;;;;;;;;5055983;28;20542;-90
2022/05/03 10:31:56;;;;;;;24.70;23.20;;;;;;;;;;5055175;28;20475;-89
2022/05/03 10:34:59;;;;;;;24.90;23.10;;;;;;;;;;5054334;28;20455;-88
2022/05/03 10:37:45;;;;;;;23.67;22.27;;;;;;;;;;5055666;28;20526;-88
2022/05/03 10:40:14;;;;;;;23.73;22.20;;;;;;;;;;5054953;28;20933;-83
2022/05/03 10:42:42;;;;;;;23.67;22.13;;;;;;;;;;5054276;28;20444;-83
2022/05/03 10:45:10;;;;;;;24.40;22.90;;;;;;;;;;5054513;28;20413;-85
2022/05/03 10:47:42;;;;;;;23.83;22.43;;;;;;;;;;5054127;28;20462;-85
2022/05/03 10:50:26;;;;;;;24.87;23.37;;;;;;;;;;5054376;28;20482;-88
2022/05/03 10:53:12;;;;;;;23.73;22.23;;;;;;;;;;5055057;28;20443;-85
2022/05/03 10:56:00;;;;;;;23.97;22.37;;;;;;;;;;5054492;28;20462;-87
2022/05/03 10:58:28;;;;;;;24.10;22.60;;;;;;;;;;5054415;28;20462;-89
2022/05/03 11:01:02;;;;;;;23.87;22.23;;;;;;;;;;5054502;28;20491;-90
2022/05/03 11:03:30;;;;;;;24.30;22.80;;;;;;;;;;5054862;28;20535;-89
2022/05/03 11:06:18;;;;;;;24.27;22.87;;;;;;;;;;5052884;28;20466;-86
2022/05/03 11:09:02;;;;;;;23.87;22.47;;;;;;;;;;5054723;28;20476;-89
2022/05/03 11:11:49;;;;;;;23.80;22.40;;;;;;;;;;5054216;28;20509;-90
2022/05/03 11:14:31;;;;;;;25.97;24.47;;;;;;;;;;5055016;28;20479;-93
2022/05/03 11:17:08;;;;;;;25.30;23.60;;;;;;;;;;5054125;28;20447;-88
2022/05/03 11:19:37;;;;;;;26.03;24.43;;;;;;;;;;5057484;28;20532;-89
2022/05/03 11:22:10;;;;;;;24.63;23.20;;;;;;;;;;5074551;28;20956;-89
2022/05/03 11:24:42;;;;;;;24.83;23.23;;;;;;;;;;5075350;28;20409;-92
2022/05/03 11:27:10;;;;;;;24.80;23.10;;;;;;;;;;5074391;28;20470;-89
2022/05/03 11:29:38;;;;;;;25.57;23.97;;;;;;;;;;5073731;28;20438;-85
2022/05/03 11:32:08;;;;;;;26.87;25.20;;;;;;;;;;5073080;28;20453;-86
2022/05/03 11:34:36;;;;;;;25.67;24.00;;;;;;;;;;5073532;28;20441;-85
2022/05/03 11:37:04;;;;;;;25.33;23.73;;;;;;;;;;5073737;28;20466;-86
2022/05/03 11:39:31;;;;;;;26.00;24.30;;;;;;;;;;5073562;28;20500;-87
2022/05/03 11:41:59;;;;;;;27.00;24.97;;;;;;;;;;5074019;28;20410;-88
2022/05/03 11:44:28;;;;;;;27.47;25.80;;;;;;;;;;5073800;28;20442;-88
2022/05/03 11:46:55;;;;;;;25.63;24.03;;;;;;;;;;5073675;28;20452;-87
2022/05/03 11:49:25;;;;;;;26.77;24.90;;;;;;;;;;5073967;28;20429;-87
2022/05/03 11:57:23;;;;;;;25.50;24.00;;;;;;;;;;5072583;28;20451;-82
2022/05/03 11:59:51;;;;;;;26.63;24.57;;;;;;;;;;5072353;28;20493;-83
2022/05/03 12:02:20;;;;;;;27.47;25.70;;;;;;;;;;5072828;28;20934;-83
2022/05/03 12:05:11;;;;;;;26.70;25.00;;;;;;;;;;5072583;28;20453;-82
2022/05/03 12:07:39;;;;;;;27.60;25.73;;;;;;;;;;5072557;28;20915;-83
2022/05/03 12:10:15;;;;;;;26.00;24.10;;;;;;;;;;5072250;28;20442;-83
2022/05/03 12:12:46;;;;;;;27.77;25.60;;;;;;;;;;5072808;28;20413;-83
2022/05/03 12:15:15;;;;;;;27.23;25.43;;;;;;;;;;5072405;28;20447;-83
2022/05/03 12:17:59;;;;;;;27.43;25.60;;;;;;;;;;5072401;28;20412;-83
2022/05/03 12:20:32;;;;;;;28.63;26.53;;;;;;;;;;5070897;28;20480;-82
2022/05/03 12:23:09;;;;;;;28.67;26.70;;;;;;;;;;5072646;28;20417;-83
2022/05/03 12:25:37;;;;;;;27.30;25.47;;;;;;;;;;5072299;28;20910;-83
2022/05/03 12:28:05;;;;;;;28.07;26.27;;;;;;;;;;5073452;28;20829;-83
2022/05/03 12:30:32;;;;;;;26.47;24.67;;;;;;;;;;5076563;28;20425;-82
2022/05/03 12:33:02;;;;;;;29.10;26.90;;;;;;;;;;5076381;28;20428;-83
2022/05/03 12:35:35;;;;;;;27.43;25.43;;;;;;;;;;5076036;28;20470;-83
2022/05/03 12:38:13;;;;;;;27.60;25.77;;;;;;;;;;5076322;28;20427;-82
2022/05/03 12:40:44;;;;;;;27.73;25.73;;;;;;;;;;5075870;28;20810;-83
2022/05/03 12:43:14;;;;;;;28.30;26.40;;;;;;;;;;5076237;28;20457;-83
2022/05/03 12:45:41;;;;;;;29.37;27.37;;;;;;;;;;5076732;28;20479;-90
2022/05/03 12:48:09;;;;;;;28.50;26.50;;;;;;;;;;5075414;28;20851;-86
2022/05/03 12:50:38;;;;;;;28.23;26.33;;;;;;;;;;5076673;28;20600;-85
2022/05/03 12:53:06;;;;;;;29.70;27.60;;;;;;;;;;5076837;28;20438;-89
2022/05/03 12:55:33;;;;;;;28.30;26.40;;;;;;;;;;5077029;28;20437;-83
2022/05/03 13:00:45;;;;;;;27.30;25.60;;;;;;;;;;5076758;28;20401;-86
2022/05/03 13:03:13;;;;;;;28.27;26.37;;;;;;;;;;5076895;28;20413;-84
2022/05/03 13:05:42;;;;;;;28.13;26.13;;;;;;;;;;5075803;28;20417;-86
2022/05/03 13:08:09;;;;;;;29.23;27.17;;;;;;;;;;5078242;28;20421;-91
2022/05/03 13:10:39;;;;;;;29.33;27.20;;;;;;;;;;5080420;28;20427;-93
2022/05/03 13:13:06;;;;;;;29.20;27.30;;;;;;;;;;5077286;28;20485;-95
2022/05/03 13:15:34;;;;;;;29.47;27.57;;;;;;;;;;5077490;28;20458;-92
2022/05/03 13:18:01;;;;;;;28.27;26.47;;;;;;;;;;5077561;28;20458;-93
2022/05/03 13:20:29;;;;;;;29.83;27.60;;;;;;;;;;5078776;28;20972;-96
2022/05/03 13:22:59;;;;;;;27.93;26.03;;;;;;;;;;5078515;28;20453;-90
2022/05/03 13:25:26;;;;;;;28.00;26.20;;;;;;;;;;5078216;28;20505;-93
2022/05/03 13:27:54;;;;;;;28.80;27.00;;;;;;;;;;5078452;28;20457;-95
2022/05/03 13:30:22;;;;;;;29.03;27.17;;;;;;;;;;5076362;28;20504;-94
2022/05/03 13:32:49;;;;;;;28.30;26.40;;;;;;;;;;5076902;28;20433;-92
2022/05/03 13:40:28;;;;;;;27.87;26.07;;;;;;;;;;5074763;28;20451;-88
2022/05/03 13:40:52;;;;;;;29.67;27.60;;;;;;;;;;5076657;28;20526;-95
2022/05/03 13:43:20;;;;;;;28.17;25.97;;;;;;;;;;5074393;28;20931;-84
2022/05/03 13:45:47;;;;;;;27.10;25.20;;;;;;;;;;5075469;28;20444;-84
2022/05/03 13:48:14;;;;;;;27.53;25.53;;;;;;;;;;5075061;28;20435;-84
2022/05/03 13:50:42;;;;;;;28.60;26.73;;;;;;;;;;5074900;28;20505;-84
2022/05/03 13:53:11;;;;;;;29.37;27.17;;;;;;;;;;5074961;28;20523;-84
2022/05/03 13:55:39;;;;;;;27.30;25.30;;;;;;;;;;5074956;28;20524;-84
2022/05/03 13:58:07;;;;;;;28.90;27.00;;;;;;;;;;5074900;28;20471;-83
2022/05/03 14:00:35;;;;;;;28.10;26.20;;;;;;;;;;5074459;28;20544;-84
2022/05/03 14:03:02;;;;;;;27.33;25.70;;;;;;;;;;5074454;28;20434;-84
2022/05/03 14:05:29;;;;;;;27.87;26.10;;;;;;;;;;5074468;28;20857;-84
2022/05/03 14:07:57;;;;;;;28.33;26.53;;;;;;;;;;5074894;28;20449;-84
2022/05/03 14:10:25;;;;;;;30.03;28.20;;;;;;;;;;5074517;28;20800;-84
2022/05/03 14:12:53;;;;;;;28.47;26.47;;;;;;;;;;5074613;28;20972;-84
2022/05/03 14:15:20;;;;;;;27.07;25.27;;;;;;;;;;5074280;28;20850;-83
2022/05/03 14:17:48;;;;;;;27.90;26.10;;;;;;;;;;5074288;28;20413;-83
2022/05/03 14:20:15;;;;;;;28.93;26.93;;;;;;;;;;5074263;28;20862;-84
2022/05/03 14:22:42;;;;;;;29.70;27.80;;;;;;;;;;5074651;28;20458;-88
2022/05/03 14:25:11;;;;;;;27.83;25.93;;;;;;;;;;5074210;28;20417;-83
2022/05/03 14:27:40;;;;;;;28.17;26.27;;;;;;;;;;5074489;28;20420;-84
2022/05/03 14:30:09;;;;;;;27.47;25.67;;;;;;;;;;5074534;28;20450;-83
2022/05/03 14:32:37;;;;;;;28.93;26.80;;;;;;;;;;5074255;28;20405;-82
2022/05/03 14:35:06;;;;;;;30.17;27.80;;;;;;;;;;5074185;28;20434;-83
2022/05/03 14:37:33;;;;;;;28.93;27.10;;;;;;;;;;5074129;28;20425;-84
2022/05/03 14:40:00;;;;;;;27.90;26.00;;;;;;;;;;5074000;28;20485;-83
2022/05/03 14:42:28;;;;;;;28.40;26.60;;;;;;;;;;5073888;28;20420;-83
2022/05/03 14:44:57;;;;;;;28.07;26.20;;;;;;;;;;5073873;28;20780;-83
2022/05/03 14:47:24;;;;;;;28.97;27.07;;;;;;;;;;5074146;28;20445;-83
2022/05/03 14:49:51;;;;;;;28.63;26.73;;;;;;;;;;5073353;28;20410;-83
2022/05/03 14:52:19;;;;;;;29.53;27.50;;;;;;;;;;5073366;28;20473;-84
2022/05/03 14:54:47;;;;;;;28.00;26.20;;;;;;;;;;5073732;28;20449;-84
2022/05/03 15:02:57;;;;;;;29.77;27.87;;;;;;;;;;4991752;28;20489;-83
2022/05/03 15:05:25;;;;;;;29.23;27.30;;;;;;;;;;4992027;28;20948;-84
2022/05/03 15:07:53;;;;;;;30.43;28.43;;;;;;;;;;4992020;28;20413;-84
2022/05/03 15:10:21;;;;;;;29.90;28.00;;;;;;;;;;4991967;28;20933;-84
2022/05/03 15:12:48;;;;;;;29.93;28.03;;;;;;;;;;4992204;28;20415;-83
2022/05/03 15:15:18;;;;;;;29.67;27.47;;;;;;;;;;4976271;28;20405;-84
2022/05/03 15:17:46;;;;;;;29.50;27.53;;;;;;;;;;4992967;28;20911;-92